map of UES home
UES - Airport
Location
City:  Waukesha, Wisconsin, United States
Name:Waukesha County Airport
ICAO:KUES
IATA:UES
FAA LID:UES

Details
Type:Airport (Airfield)
Use:Public/Civil
Latitude:4302'28"N (43.041028)
Longitude:8814'13"W (-88.237055)
Datum:WGS 1984
Elevation:911 ft (278 m)
Variation:3.64W (WMM2015 magnetic declination)
-0.06 annual change
Runways:2
Longest:5849 × 100 ft (1783 × 30.5 m), paved

Time
Time Zone:UTC-6 (DST-5)
Local Time:

Weather
METAR:KUES 140935Z AUTO 31006KT 10SM CLR M12/M15 A2995 RMK AO2
TAF:KUES 140520Z 1406/1506 34012KT P6SM SCT070
FM142200 25005KT P6SM BKN090

Related Locations
Nearby:
Farthest:MQZ: 11034 mi / 17757 km
Margaret River [Margaret River Airport], WA, AU

Find:

   beyond  
but within

Other Information
Maps:
NOTAMs:
Links:
Sources:

  
flag of United States
flag of Wisconsin
  

Airport Diagram

Airport diagram for UES

Airport diagram PDF

Sectional Chart

Flight Planning
at skyvector.com

Satellite Image

Google Maps Satellite view

 

Copyright © 2004-2017 Karl L. Swartz. All rights reserved.
The Great Circle Mapper name and logo are trademarks of the Great Circle Mapper.
All other trademarks mentioned herein belong to their respective owners.
Please see credits for attibutions and further copyright information.

  Follow gcmap on Facebook Follow gcmap on Twitter Follow gcmap on Google+ GCmap on LinkedIn

hCard Microformat

Geo Microformat